Aberhosan, United Kingdom

11:12 PM GMT on February 08, 2016 (GMT +0000)
Machynlleth | | Change Station
CLOSE
Current Station
Personal Weather Station
Location: Machynlleth,
Elevation: 43 ft
Nearby Weather Stations

Elev 43 ft 52.59 °N, 3.85 °W | Updated 13 seconds ago

Partly Cloudy
Partly Cloudy
44.8 °F
Feels Like 42 °F
N
4.9
Wind Variable Wind from South
Gusts 10.0 mph

Today
High -- | Low -- °F
--% Chance of Precip.
Yesterday
High -- | Low -- °F
Precip. -- in
Pressure 29.21 in
Visibility 6.2 miles
Clouds Few 2900 ft
Windchill 42 °F
Dew Point 36 °F
Humidity 72%
Rainfall 0.14 in
Snow Depth Not available.
7:45 AM 5:13 PM
New Moon, 0% visible
METAR EGOS 082250Z AUTO 25017KT 9999 FEW029/// 05/02 Q0989
Pressure 29.21 in
Visibility 6.2 miles
Clouds Few 2900 ft
Windchill 42 °F
Dew Point 36 °F
Humidity 72%
Rainfall 0.14 in
Snow Depth Not available.
7:45 AM 5:13 PM
New Moon, 0% visible
METAR EGOS 082250Z AUTO 25017KT 9999 FEW029/// 05/02 Q0989

10-Day Weather Forecast

Almanac

Astronomy

Feb. 08, 2016 Rise Set
Actual Time
Civil Twilight
Nautical Twilight
Astronomical Twilight
Moon
Length of Visible Light
Length of Day
Tomorrow will be .
, % of the Moon is Illuminated

Today's Extremes

Country Highs Country Lows

Community

WunderPhotos

Upload Photos

1,891,525 photos uploaded!

WunderBlog® & News

Nearby

Air Quality

  Air Quality AQ Index Pollutant
Not available.

Snow Depth

Station Depth Elevation

Earthquake Activity

City Distance Mag. Time & Date
Minimum magnitude displayed is 2.5.

Coastal Water Temperatures

Place Temperature

Stations

Nearby Weather Stations

Station Location Temp. Windchill Dew Point Humidity Wind Precip. Elev Updated Type